Lammy — PBRE — position and weather

sailwx.info

Track history (hours):
 
Tides and Currents Weather Stations Pressure Air Temp Water Temp Dewpoint Dewpoint Depression Visibility Wind Speed Wind Dir Waves Ship Positions

Lammy

Last reported at 2017-May-26 11:00 UTC. Time now 2017-May-26 11:16 UTC.
Position N 56°31' E 016°60'.

Length 95 m; draft 5.3 m.

Type: Cargo ship. MMSI: 245391000.

Date/timePositionNaut miles runAvg speedWind from/ knotsBaromVisibWave heightAir tempDewpointWater temp
2017-May-26 11:00N 56°31' E 016°60'612.1
2017-May-26 10:30N 56°25' E 016°58'612.1
2017-May-26 10:00N 56°19' E 016°56'612.2
2017-May-26 09:30N 56°13' E 016°53'612.1
2017-May-26 09:00N 56°07' E 016°51'612.0
2017-May-26 08:30N 56°03' E 016°43'612.7
2017-May-26 08:00N 55°60' E 016°33'612.7
2017-May-26 07:30N 55°57' E 016°23'612.7
2017-May-26 07:00N 55°54' E 016°13'612.6
2017-May-26 06:30N 55°50' E 016°04'612.5
2017-May-26 06:00N 55°47' E 015°54'612.6
2017-May-26 05:30N 55°44' E 015°44'612.4
2017-May-26 05:00N 55°41' E 015°35'612.3
2017-May-26 04:30N 55°38' E 015°26'612.4
2017-May-26 04:00N 55°35' E 015°16'612.5
2017-May-26 03:30N 55°32' E 015°07'612.8
2017-May-26 03:00N 55°29' E 014°57'612.7
2017-May-26 02:30N 55°25' E 014°47'612.5
2017-May-26 02:00N 55°22' E 014°38'713.0
2017-May-26 01:30N 55°17' E 014°30'712.7
2017-May-26 00:58N 55°12' E 014°21'612.4
2017-May-26 00:30N 55°11' E 014°11'612.3
2017-May-25 23:59N 55°11' E 014°00'1812.3
2017-May-25 22:32N 55°13' E 013°29'012.5
2017-May-25 22:30N 55°13' E 013°29'1112.5
2017-May-25 21:38N 55°14' E 013°10'212.7
2017-May-25 21:30N 55°14' E 013°07'612.6
2017-May-25 21:00N 55°15' E 012°56'612.6
2017-May-25 20:30N 55°16' E 012°45'510.4
2017-May-25 20:00N 55°20' E 012°38'612.4
2017-May-25 19:30N 55°26' E 012°40'612.4
2017-May-25 19:00N 55°32' E 012°42'5 9.9
2017-May-25 18:30N 55°37' E 012°42'511.0
2017-May-25 18:00N 55°42' E 012°41'612.6
2017-May-25 17:30N 55°49' E 012°42'612.6
2017-May-25 17:00N 55°54' E 012°38'612.9
2017-May-25 16:30N 56°01' E 012°38'612.2
2017-May-25 16:00N 56°06' E 012°33'3012.2
2017-May-25 13:34N 56°29' E 011°58'313.1
2017-May-25 13:21N 56°32' E 011°57'513.0
2017-May-25 13:00N 56°36' E 011°55'612.7
2017-May-25 12:31N 56°42' E 011°52'612.9
2017-May-25 12:00N 56°48' E 011°49'712.7
2017-May-25 11:26N 56°55' E 011°43'512.7
2017-May-25 11:01N 56°60' E 011°39'713.0
2017-May-25 10:30N 57°06' E 011°35'612.6
2017-May-25 10:00N 57°12' E 011°30'612.6
2017-May-25 09:30N 57°17' E 011°25'612.6
2017-May-25 09:00N 57°23' E 011°20'612.1
2017-May-25 08:31N 57°29' E 011°15'611.8
2017-May-25 08:00N 57°34' E 011°11'612.0
2017-May-25 07:30N 57°38' E 011°03'612.7
2017-May-25 07:00N 57°43' E 010°54'713.3
2017-May-25 06:30N 57°46' E 010°44'1113.5
2017-May-25 05:42N 57°44' E 010°24'312.9
2017-May-25 05:27N 57°43' E 010°19'612.9
2017-May-25 04:59N 57°41' E 010°08'39712.7
2017-May-23 21:41N 55°14' W 000°58'212.7
2017-May-23 21:30N 55°13' W 001°02'612.7
2017-May-23 21:00N 55°11' W 001°12'612.7
2017-May-23 20:31N 55°08' W 001°22'4 8.5
2017-May-23 20:00N 55°07' W 001°30'1 2.1
2017-May-23 19:29N 55°08' W 001°31'0 0.0
2017-May-23 18:59N 55°08' W 001°31'0 0.0
2017-May-23 18:29N 55°08' W 001°31'0 0.0
2017-May-23 17:59N 55°08' W 001°31'0 0.0
2017-May-23 17:29N 55°08' W 001°31'0 0.0
2017-May-23 16:59N 55°08' W 001°31'0 0.0
2017-May-23 16:26N 55°08' W 001°31'0 0.0
2017-May-23 15:59N 55°08' W 001°31'0 0.0
2017-May-23 15:29N 55°08' W 001°31'0 0.0
2017-May-23 14:59N 55°08' W 001°31'0 0.0
2017-May-23 13:59N 55°08' W 001°31'0 0.0
2017-May-23 13:29N 55°08' W 001°31'0 0.0
2017-May-23 12:59N 55°08' W 001°31'0 0.0
2017-May-23 12:29N 55°08' W 001°31'0 0.0
2017-May-23 11:59N 55°08' W 001°31'0 0.0
2017-May-23 11:29N 55°08' W 001°31'0 0.0
2017-May-23 10:59N 55°08' W 001°31'0 0.0
2017-May-23 10:29N 55°08' W 001°31'0 0.0
2017-May-23 09:59N 55°08' W 001°31'0 0.0
2017-May-23 09:29N 55°08' W 001°31'0 0.0
2017-May-23 08:59N 55°08' W 001°31'0 0.0
2017-May-23 08:29N 55°08' W 001°31'0 0.0
2017-May-23 07:59N 55°08' W 001°31'0 0.0
2017-May-23 07:29N 55°08' W 001°31'0 0.0
2017-May-23 06:59N 55°08' W 001°31'0 0.0
2017-May-23 06:28N 55°08' W 001°31'0 0.0
2017-May-23 05:58N 55°08' W 001°31'0 0.0
2017-May-23 05:28N 55°08' W 001°31'0 0.0
2017-May-23 05:01N 55°08' W 001°31'1 1.8
2017-May-23 04:31N 55°08' W 001°30'3 6.7
2017-May-23 04:00N 55°05' W 001°26'4 8.9
2017-May-23 03:30N 55°02' W 001°20'611.5
2017-May-23 03:01N 54°58' W 001°13'611.8
2017-May-23 02:30N 54°54' W 001°05'611.6
2017-May-23 02:01N 54°50' W 000°58'2611.2
2017-May-22 23:40N 54°30' W 000°30'211.1
2017-May-22 23:30N 54°28' W 000°28'611.3
2017-May-22 23:01N 54°24' W 000°22'612.0
2017-May-22 22:31N 54°19' W 000°16'612.6
2017-May-22 22:01N 54°14' W 000°09'713.2
2017-May-22 21:31N 54°09' W 000°02'713.8
2017-May-22 21:00N 54°03' E 000°04'57 2.4
2017-May-21 21:02N 53°13' E 000°48'1 8.9
2017-May-21 20:57N 53°12' E 000°49'9 8.7
2017-May-21 19:53N 53°06' E 000°60'3 8.2
2017-May-21 19:30N 53°04' E 001°04'4 7.9
2017-May-21 19:00N 53°02' E 001°10'4 7.7
2017-May-21 18:30N 52°60' E 001°15'4 8.4
2017-May-21 18:00N 52°58' E 001°21'4 7.8
2017-May-21 17:30N 52°56' E 001°27'4 7.4
2017-May-21 17:00N 52°53' E 001°31'3 6.9
2017-May-21 16:30N 52°51' E 001°35'3 6.5
2017-May-21 16:00N 52°49' E 001°39'3 6.6
2017-May-21 15:31N 52°46' E 001°43'3 6.1
2017-May-21 15:00N 52°44' E 001°46'3 5.9
2017-May-21 14:30N 52°41' E 001°49'6 6.2
2017-May-21 13:28N 52°35' E 001°53'14 8.8
2017-May-21 11:51N 52°21' E 001°51'3 9.5
2017-May-21 11:30N 52°18' E 001°51'5 9.7
2017-May-21 11:00N 52°13' E 001°51'5 9.8
2017-May-21 10:31N 52°08' E 001°51'510.0
2017-May-21 10:01N 52°03' E 001°50'510.5
2017-May-21 09:31N 51°58' E 001°49'510.0
2017-May-21 09:00N 51°53' E 001°49'5 9.8
2017-May-21 08:30N 51°48' E 001°49'5 9.5
2017-May-21 08:00N 51°43' E 001°49'5 9.2
2017-May-21 07:30N 51°39' E 001°49'5 9.0
2017-May-21 07:00N 51°34' E 001°47'5 9.2
2017-May-21 06:30N 51°30' E 001°45'5 9.2
2017-May-21 06:01N 51°25' E 001°44'5 9.0
2017-May-21 05:30N 51°21' E 001°42'4 8.9
2017-May-21 05:01N 51°17' E 001°40'4 8.7
2017-May-21 04:31N 51°13' E 001°38'4 8.3
2017-May-21 04:01N 51°10' E 001°33'4 8.1
2017-May-21 03:31N 51°07' E 001°28'4 8.2
2017-May-21 03:01N 51°05' E 001°23'4 8.1
2017-May-21 02:30N 51°02' E 001°18'4 8.3
2017-May-21 02:00N 50°60' E 001°13'4 8.6
2017-May-21 01:29N 50°57' E 001°08'4 8.7
2017-May-21 01:01N 50°54' E 001°02'4 8.6
2017-May-21 00:31N 50°52' E 000°57'4 8.9
2017-May-21 00:00N 50°49' E 000°51'4 8.8
2017-May-20 23:31N 50°47' E 000°45'5 8.8
2017-May-20 23:00N 50°44' E 000°39'4 8.7
2017-May-20 22:30N 50°42' E 000°33'4 8.5
2017-May-20 22:01N 50°42' E 000°26'4 8.5
2017-May-20 21:31N 50°42' E 000°20'4 8.3
2017-May-20 21:00N 50°43' E 000°13'4 8.4
2017-May-20 20:30N 50°43' E 000°06'4 8.7
2017-May-20 20:01N 50°44' W 000°00'4 8.8
2017-May-20 19:30N 50°45' W 000°07'4 8.5
2017-May-20 19:00N 50°47' W 000°13'3 5.8
2017-May-20 18:30N 50°50' W 000°14'0 0.7
2017-May-20 18:00N 50°50' W 000°14'1 1.4
2017-May-20 17:28N 50°50' W 000°13'0 0.2
2017-May-20 16:58N 50°50' W 000°13'0 0.0
2017-May-20 16:19N 50°50' W 000°13'0 0.0
2017-May-20 15:34N 50°50' W 000°13'0 0.0
2017-May-20 15:01N 50°50' W 000°13'0 0.0
2017-May-20 14:37N 50°50' W 000°13'0 0.0
2017-May-20 13:25N 50°50' W 000°13'0 0.0
2017-May-20 12:52N 50°50' W 000°13'0 0.0
2017-May-20 12:25N 50°50' W 000°13'0 0.0
2017-May-20 11:58N 50°50' W 000°13'0 0.0
2017-May-20 11:25N 50°50' W 000°13'0 0.0
2017-May-20 10:55N 50°50' W 000°13'0 0.0
2017-May-20 10:19N 50°50' W 000°13'0 0.0
2017-May-20 09:58N 50°50' W 000°13'0 0.0
2017-May-20 09:22N 50°50' W 000°13'0 0.0
2017-May-20 08:31N 50°50' W 000°13'0 0.0
2017-May-20 08:19N 50°50' W 000°13'0 0.0
2017-May-20 07:55N 50°50' W 000°13'0 0.0
2017-May-20 07:25N 50°50' W 000°13'0 0.0
2017-May-20 06:58N 50°50' W 000°13'0 0.0
2017-May-20 06:28N 50°50' W 000°13'0 0.0
2017-May-20 06:00N 50°50' W 000°13'1 1.1
2017-May-20 05:30N 50°50' W 000°14'0 0.9
2017-May-20 05:00N 50°50' W 000°14'1 1.7
2017-May-20 04:30N 50°49' W 000°15'3 5.6
2017-May-20 04:00N 50°47' W 000°12'3 6.6
2017-May-20 03:30N 50°45' W 000°08'3 6.0
2017-May-20 03:00N 50°44' W 000°03'3 5.6
2017-May-20 02:30N 50°44' E 000°01'3 5.9
2017-May-20 02:00N 50°43' E 000°06'3 5.9
2017-May-20 01:30N 50°43' E 000°11'3 5.9
2017-May-20 01:00N 50°42' E 000°15'4 5.8
2017-May-20 00:14N 50°42' E 000°22'1 5.5
2017-May-20 00:00N 50°42' E 000°24'30 6.7
2017-May-19 19:31N 50°54' E 001°08'0 8.1
2017-May-19 19:29N 50°55' E 001°08'4 8.4
2017-May-19 18:58N 50°57' E 001°13'5 8.5
2017-May-19 18:22N 51°01' E 001°19'3 8.3
2017-May-19 18:00N 51°03' E 001°23'4 8.2
2017-May-19 17:30N 51°05' E 001°28'5 9.3
2017-May-19 17:00N 51°08' E 001°34'510.7
2017-May-19 16:30N 51°12' E 001°40'611.5
2017-May-19 16:00N 51°16' E 001°46'612.6
2017-May-19 15:30N 51°22' E 001°51'612.7
2017-May-19 15:00N 51°27' E 001°56'1312.7
2017-May-19 14:00N 51°36' E 002°10'2810.6
2017-May-19 11:22N 51°58' E 002°39'411.4
2017-May-19 10:59N 52°01' E 002°44'611.2
2017-May-19 10:29N 52°05' E 002°50'510.8
2017-May-19 10:00N 52°10' E 002°55'510.6
2017-May-19 09:29N 52°14' E 002°60'510.0
2017-May-19 08:59N 52°18' E 003°05'5 9.6
2017-May-19 08:30N 52°21' E 003°11'5 9.8
2017-May-19 07:59N 52°25' E 003°15'510.0
2017-May-19 07:30N 52°29' E 003°20'510.3
2017-May-19 06:59N 52°34' E 003°24'510.8
2017-May-19 06:30N 52°38' E 003°30'611.4
2017-May-19 06:00N 52°42' E 003°35'612.0
2017-May-19 05:29N 52°47' E 003°42'3913.2
2017-May-19 02:30N 53°16' E 004°27'713.3
2017-May-19 01:59N 53°22' E 004°31'713.2
2017-May-19 01:28N 53°29' E 004°34'2112.7
2017-May-18 23:49N 53°49' E 004°46'612.6
2017-May-18 23:20N 53°54' E 004°50'512.7
2017-May-18 22:58N 53°59' E 004°53'812.7
2017-May-18 22:21N 54°06' E 004°58'512.7
2017-May-18 21:59N 54°10' E 005°03'7712.8
2017-May-18 15:57N 55°15' E 006°15'18112.1
2017-May-18 00:59N 57°35' E 009°42'612.1
2017-May-18 00:28N 57°38' E 009°52'612.2
2017-May-18 00:01N 57°40' E 010°02'612.2
2017-May-17 23:29N 57°43' E 010°13'612.1
2017-May-17 23:00N 57°45' E 010°23'611.4
2017-May-17 22:29N 57°47' E 010°33'611.3
2017-May-17 22:00N 57°48' E 010°44'612.5
2017-May-17 21:30N 57°44' E 010°53'612.6
2017-May-17 21:00N 57°40' E 011°01'612.8
2017-May-17 20:30N 57°36' E 011°10'713.1
2017-May-17 20:00N 57°31' E 011°19'612.7
2017-May-17 19:31N 57°27' E 011°26'713.5
2017-May-17 19:00N 57°20' E 011°31'913.6
2017-May-17 18:21N 57°12' E 011°37'813.4
2017-May-17 17:47N 57°05' E 011°42'5712.9
2017-May-17 13:23N 56°14' E 012°27'514.0
2017-May-17 13:01N 56°09' E 012°31'713.4
2017-May-17 12:31N 56°04' E 012°39'612.8
2017-May-17 12:01N 55°58' E 012°42'611.3
2017-May-17 11:30N 55°52' E 012°44'510.2
2017-May-17 11:01N 55°47' E 012°43'5 9.7
2017-May-17 10:31N 55°42' E 012°41'5 9.3
2017-May-17 10:01N 55°38' E 012°42'4 8.9
2017-May-17 09:31N 55°33' E 012°42'5 9.6
2017-May-17 09:00N 55°28' E 012°42'612.0
2017-May-17 08:31N 55°23' E 012°41'510.0
2017-May-17 08:00N 55°18' E 012°44'1412.4
2017-May-17 06:52N 55°15' E 013°08'512.7
2017-May-17 06:30N 55°15' E 013°16'612.6
2017-May-17 05:59N 55°15' E 013°28'612.8
2017-May-17 05:30N 55°14' E 013°39'613.0
2017-May-17 05:00N 55°14' E 013°50'712.8
2017-May-17 04:29N 55°14' E 014°01'613.0
2017-May-17 04:00N 55°14' E 014°13'612.1
2017-May-17 03:29N 55°17' E 014°21'612.9
2017-May-17 03:00N 55°22' E 014°28'612.9
2017-May-17 02:30N 55°27' E 014°35'712.7
2017-May-17 01:58N 55°31' E 014°46'612.3
2017-May-17 01:31N 55°33' E 014°54'612.5
2017-May-17 01:00N 55°36' E 015°04'612.5
2017-May-17 00:31N 55°40' E 015°14'612.9
2017-May-17 00:01N 55°43' E 015°24'613.0
2017-May-16 23:31N 55°46' E 015°33'612.9
2017-May-16 23:01N 55°49' E 015°43'612.8
2017-May-16 22:31N 55°53' E 015°53'612.6
2017-May-16 22:00N 55°55' E 016°03'612.7
2017-May-16 21:30N 55°58' E 016°13'612.7
2017-May-16 21:01N 56°02' E 016°23'612.8
2017-May-16 20:31N 56°05' E 016°33'612.5
2017-May-16 20:01N 56°09' E 016°41'612.2
2017-May-16 19:30N 56°14' E 016°47'612.6
2017-May-16 19:01N 56°20' E 016°51'612.7
2017-May-16 18:30N 56°26' E 016°55'612.6
2017-May-16 18:01N 56°32' E 016°60'612.4
2017-May-16 17:30N 56°38' E 017°04'612.5
2017-May-16 17:00N 56°43' E 017°08'  
Track history (hours):
 
Tides and Currents Weather Stations Pressure Air Temp Water Temp Dewpoint Dewpoint Depression Visibility Wind Speed Wind Dir Waves Ship Positions

Lammy

Last reported at 2017-May-26 11:00 UTC. Time now 2017-May-26 11:16 UTC.
Position N 56°31' E 016°60'.

Length 95 m; draft 5.3 m.

Type: Cargo ship. MMSI: 245391000.

Date/timePositionNaut miles runAvg speedWind from/ knotsBaromVisibWave heightAir tempDewpointWater temp
2017-May-26 11:00N 56°31' E 016°60'612.1
2017-May-26 10:30N 56°25' E 016°58'612.1
2017-May-26 10:00N 56°19' E 016°56'612.2
2017-May-26 09:30N 56°13' E 016°53'612.1
2017-May-26 09:00N 56°07' E 016°51'612.0
2017-May-26 08:30N 56°03' E 016°43'612.7
2017-May-26 08:00N 55°60' E 016°33'612.7
2017-May-26 07:30N 55°57' E 016°23'612.7
2017-May-26 07:00N 55°54' E 016°13'612.6
2017-May-26 06:30N 55°50' E 016°04'612.5
2017-May-26 06:00N 55°47' E 015°54'612.6
2017-May-26 05:30N 55°44' E 015°44'612.4
2017-May-26 05:00N 55°41' E 015°35'612.3
2017-May-26 04:30N 55°38' E 015°26'612.4
2017-May-26 04:00N 55°35' E 015°16'612.5
2017-May-26 03:30N 55°32' E 015°07'612.8
2017-May-26 03:00N 55°29' E 014°57'612.7
2017-May-26 02:30N 55°25' E 014°47'612.5
2017-May-26 02:00N 55°22' E 014°38'713.0
2017-May-26 01:30N 55°17' E 014°30'712.7
2017-May-26 00:58N 55°12' E 014°21'612.4
2017-May-26 00:30N 55°11' E 014°11'612.3
2017-May-25 23:59N 55°11' E 014°00'1812.3
2017-May-25 22:32N 55°13' E 013°29'012.5
2017-May-25 22:30N 55°13' E 013°29'1112.5
2017-May-25 21:38N 55°14' E 013°10'212.7
2017-May-25 21:30N 55°14' E 013°07'612.6
2017-May-25 21:00N 55°15' E 012°56'612.6
2017-May-25 20:30N 55°16' E 012°45'510.4
2017-May-25 20:00N 55°20' E 012°38'612.4
2017-May-25 19:30N 55°26' E 012°40'612.4
2017-May-25 19:00N 55°32' E 012°42'5 9.9
2017-May-25 18:30N 55°37' E 012°42'511.0
2017-May-25 18:00N 55°42' E 012°41'612.6
2017-May-25 17:30N 55°49' E 012°42'612.6
2017-May-25 17:00N 55°54' E 012°38'612.9
2017-May-25 16:30N 56°01' E 012°38'612.2
2017-May-25 16:00N 56°06' E 012°33'3012.2
2017-May-25 13:34N 56°29' E 011°58'313.1
2017-May-25 13:21N 56°32' E 011°57'513.0
2017-May-25 13:00N 56°36' E 011°55'612.7
2017-May-25 12:31N 56°42' E 011°52'612.9
2017-May-25 12:00N 56°48' E 011°49'712.7
2017-May-25 11:26N 56°55' E 011°43'512.7
2017-May-25 11:01N 56°60' E 011°39'713.0
2017-May-25 10:30N 57°06' E 011°35'612.6
2017-May-25 10:00N 57°12' E 011°30'612.6
2017-May-25 09:30N 57°17' E 011°25'612.6
2017-May-25 09:00N 57°23' E 011°20'612.1
2017-May-25 08:31N 57°29' E 011°15'611.8
2017-May-25 08:00N 57°34' E 011°11'612.0
2017-May-25 07:30N 57°38' E 011°03'612.7
2017-May-25 07:00N 57°43' E 010°54'713.3
2017-May-25 06:30N 57°46' E 010°44'1113.5
2017-May-25 05:42N 57°44' E 010°24'312.9
2017-May-25 05:27N 57°43' E 010°19'612.9
2017-May-25 04:59N 57°41' E 010°08'39712.7
2017-May-23 21:41N 55°14' W 000°58'212.7
2017-May-23 21:30N 55°13' W 001°02'612.7
2017-May-23 21:00N 55°11' W 001°12'612.7
2017-May-23 20:31N 55°08' W 001°22'4 8.5
2017-May-23 20:00N 55°07' W 001°30'1 2.1
2017-May-23 19:29N 55°08' W 001°31'0 0.0
2017-May-23 18:59N 55°08' W 001°31'0 0.0
2017-May-23 18:29N 55°08' W 001°31'0 0.0
2017-May-23 17:59N 55°08' W 001°31'0 0.0
2017-May-23 17:29N 55°08' W 001°31'0 0.0
2017-May-23 16:59N 55°08' W 001°31'0 0.0
2017-May-23 16:26N 55°08' W 001°31'0 0.0
2017-May-23 15:59N 55°08' W 001°31'0 0.0
2017-May-23 15:29N 55°08' W 001°31'0 0.0
2017-May-23 14:59N 55°08' W 001°31'0 0.0
2017-May-23 13:59N 55°08' W 001°31'0 0.0
2017-May-23 13:29N 55°08' W 001°31'0 0.0
2017-May-23 12:59N 55°08' W 001°31'0 0.0
2017-May-23 12:29N 55°08' W 001°31'0 0.0
2017-May-23 11:59N 55°08' W 001°31'0 0.0
2017-May-23 11:29N 55°08' W 001°31'0 0.0
2017-May-23 10:59N 55°08' W 001°31'0 0.0
2017-May-23 10:29N 55°08' W 001°31'0 0.0
2017-May-23 09:59N 55°08' W 001°31'0 0.0
2017-May-23 09:29N 55°08' W 001°31'0 0.0
2017-May-23 08:59N 55°08' W 001°31'0 0.0
2017-May-23 08:29N 55°08' W 001°31'0 0.0
2017-May-23 07:59N 55°08' W 001°31'0 0.0
2017-May-23 07:29N 55°08' W 001°31'0 0.0
2017-May-23 06:59N 55°08' W 001°31'0 0.0
2017-May-23 06:28N 55°08' W 001°31'0 0.0
2017-May-23 05:58N 55°08' W 001°31'0 0.0
2017-May-23 05:28N 55°08' W 001°31'0 0.0
2017-May-23 05:01N 55°08' W 001°31'1 1.8
2017-May-23 04:31N 55°08' W 001°30'3 6.7
2017-May-23 04:00N 55°05' W 001°26'4 8.9
2017-May-23 03:30N 55°02' W 001°20'611.5
2017-May-23 03:01N 54°58' W 001°13'611.8
2017-May-23 02:30N 54°54' W 001°05'611.6
2017-May-23 02:01N 54°50' W 000°58'2611.2
2017-May-22 23:40N 54°30' W 000°30'211.1
2017-May-22 23:30N 54°28' W 000°28'611.3
2017-May-22 23:01N 54°24' W 000°22'612.0
2017-May-22 22:31N 54°19' W 000°16'612.6
2017-May-22 22:01N 54°14' W 000°09'713.2
2017-May-22 21:31N 54°09' W 000°02'713.8
2017-May-22 21:00N 54°03' E 000°04'57 2.4
2017-May-21 21:02N 53°13' E 000°48'1 8.9
2017-May-21 20:57N 53°12' E 000°49'9 8.7
2017-May-21 19:53N 53°06' E 000°60'3 8.2
2017-May-21 19:30N 53°04' E 001°04'4 7.9
2017-May-21 19:00N 53°02' E 001°10'4 7.7
2017-May-21 18:30N 52°60' E 001°15'4 8.4
2017-May-21 18:00N 52°58' E 001°21'4 7.8
2017-May-21 17:30N 52°56' E 001°27'4 7.4
2017-May-21 17:00N 52°53' E 001°31'3 6.9
2017-May-21 16:30N 52°51' E 001°35'3 6.5
2017-May-21 16:00N 52°49' E 001°39'3 6.6
2017-May-21 15:31N 52°46' E 001°43'3 6.1
2017-May-21 15:00N 52°44' E 001°46'3 5.9
2017-May-21 14:30N 52°41' E 001°49'6 6.2
2017-May-21 13:28N 52°35' E 001°53'14 8.8
2017-May-21 11:51N 52°21' E 001°51'3 9.5
2017-May-21 11:30N 52°18' E 001°51'5 9.7
2017-May-21 11:00N 52°13' E 001°51'5 9.8
2017-May-21 10:31N 52°08' E 001°51'510.0
2017-May-21 10:01N 52°03' E 001°50'510.5
2017-May-21 09:31N 51°58' E 001°49'510.0
2017-May-21 09:00N 51°53' E 001°49'5 9.8
2017-May-21 08:30N 51°48' E 001°49'5 9.5
2017-May-21 08:00N 51°43' E 001°49'5 9.2
2017-May-21 07:30N 51°39' E 001°49'5 9.0
2017-May-21 07:00N 51°34' E 001°47'5 9.2
2017-May-21 06:30N 51°30' E 001°45'5 9.2
2017-May-21 06:01N 51°25' E 001°44'5 9.0
2017-May-21 05:30N 51°21' E 001°42'4 8.9
2017-May-21 05:01N 51°17' E 001°40'4 8.7
2017-May-21 04:31N 51°13' E 001°38'4 8.3
2017-May-21 04:01N 51°10' E 001°33'4 8.1
2017-May-21 03:31N 51°07' E 001°28'4 8.2
2017-May-21 03:01N 51°05' E 001°23'4 8.1
2017-May-21 02:30N 51°02' E 001°18'4 8.3
2017-May-21 02:00N 50°60' E 001°13'4 8.6
2017-May-21 01:29N 50°57' E 001°08'4 8.7
2017-May-21 01:01N 50°54' E 001°02'4 8.6
2017-May-21 00:31N 50°52' E 000°57'4 8.9
2017-May-21 00:00N 50°49' E 000°51'4 8.8
2017-May-20 23:31N 50°47' E 000°45'5 8.8
2017-May-20 23:00N 50°44' E 000°39'4 8.7
2017-May-20 22:30N 50°42' E 000°33'4 8.5
2017-May-20 22:01N 50°42' E 000°26'4 8.5
2017-May-20 21:31N 50°42' E 000°20'4 8.3
2017-May-20 21:00N 50°43' E 000°13'4 8.4
2017-May-20 20:30N 50°43' E 000°06'4 8.7
2017-May-20 20:01N 50°44' W 000°00'4 8.8
2017-May-20 19:30N 50°45' W 000°07'4 8.5
2017-May-20 19:00N 50°47' W 000°13'3 5.8
2017-May-20 18:30N 50°50' W 000°14'0 0.7
2017-May-20 18:00N 50°50' W 000°14'1 1.4
2017-May-20 17:28N 50°50' W 000°13'0 0.2
2017-May-20 16:58N 50°50' W 000°13'0 0.0
2017-May-20 16:19N 50°50' W 000°13'0 0.0
2017-May-20 15:34N 50°50' W 000°13'0 0.0
2017-May-20 15:01N 50°50' W 000°13'0 0.0
2017-May-20 14:37N 50°50' W 000°13'0 0.0
2017-May-20 13:25N 50°50' W 000°13'0 0.0
2017-May-20 12:52N 50°50' W 000°13'0 0.0
2017-May-20 12:25N 50°50' W 000°13'0 0.0
2017-May-20 11:58N 50°50' W 000°13'0 0.0
2017-May-20 11:25N 50°50' W 000°13'0 0.0
2017-May-20 10:55N 50°50' W 000°13'0 0.0
2017-May-20 10:19N 50°50' W 000°13'0 0.0
2017-May-20 09:58N 50°50' W 000°13'0 0.0
2017-May-20 09:22N 50°50' W 000°13'0 0.0
2017-May-20 08:31N 50°50' W 000°13'0 0.0
2017-May-20 08:19N 50°50' W 000°13'0 0.0
2017-May-20 07:55N 50°50' W 000°13'0 0.0
2017-May-20 07:25N 50°50' W 000°13'0 0.0
2017-May-20 06:58N 50°50' W 000°13'0 0.0
2017-May-20 06:28N 50°50' W 000°13'0 0.0
2017-May-20 06:00N 50°50' W 000°13'1 1.1
2017-May-20 05:30N 50°50' W 000°14'0 0.9
2017-May-20 05:00N 50°50' W 000°14'1 1.7
2017-May-20 04:30N 50°49' W 000°15'3 5.6
2017-May-20 04:00N 50°47' W 000°12'3 6.6
2017-May-20 03:30N 50°45' W 000°08'3 6.0
2017-May-20 03:00N 50°44' W 000°03'3 5.6
2017-May-20 02:30N 50°44' E 000°01'3 5.9
2017-May-20 02:00N 50°43' E 000°06'3 5.9
2017-May-20 01:30N 50°43' E 000°11'3 5.9
2017-May-20 01:00N 50°42' E 000°15'4 5.8
2017-May-20 00:14N 50°42' E 000°22'1 5.5
2017-May-20 00:00N 50°42' E 000°24'30 6.7
2017-May-19 19:31N 50°54' E 001°08'0 8.1
2017-May-19 19:29N 50°55' E 001°08'4 8.4
2017-May-19 18:58N 50°57' E 001°13'5 8.5
2017-May-19 18:22N 51°01' E 001°19'3 8.3
2017-May-19 18:00N 51°03' E 001°23'4 8.2
2017-May-19 17:30N 51°05' E 001°28'5 9.3
2017-May-19 17:00N 51°08' E 001°34'510.7
2017-May-19 16:30N 51°12' E 001°40'611.5
2017-May-19 16:00N 51°16' E 001°46'612.6
2017-May-19 15:30N 51°22' E 001°51'612.7
2017-May-19 15:00N 51°27' E 001°56'1312.7
2017-May-19 14:00N 51°36' E 002°10'2810.6
2017-May-19 11:22N 51°58' E 002°39'411.4
2017-May-19 10:59N 52°01' E 002°44'611.2
2017-May-19 10:29N 52°05' E 002°50'510.8
2017-May-19 10:00N 52°10' E 002°55'510.6
2017-May-19 09:29N 52°14' E 002°60'510.0
2017-May-19 08:59N 52°18' E 003°05'5 9.6
2017-May-19 08:30N 52°21' E 003°11'5 9.8
2017-May-19 07:59N 52°25' E 003°15'510.0
2017-May-19 07:30N 52°29' E 003°20'510.3
2017-May-19 06:59N 52°34' E 003°24'510.8
2017-May-19 06:30N 52°38' E 003°30'611.4
2017-May-19 06:00N 52°42' E 003°35'612.0
2017-May-19 05:29N 52°47' E 003°42'3913.2
2017-May-19 02:30N 53°16' E 004°27'713.3
2017-May-19 01:59N 53°22' E 004°31'713.2
2017-May-19 01:28N 53°29' E 004°34'2112.7
2017-May-18 23:49N 53°49' E 004°46'612.6
2017-May-18 23:20N 53°54' E 004°50'512.7
2017-May-18 22:58N 53°59' E 004°53'812.7
2017-May-18 22:21N 54°06' E 004°58'512.7
2017-May-18 21:59N 54°10' E 005°03'7712.8
2017-May-18 15:57N 55°15' E 006°15'18112.1
2017-May-18 00:59N 57°35' E 009°42'612.1
2017-May-18 00:28N 57°38' E 009°52'612.2
2017-May-18 00:01N 57°40' E 010°02'612.2
2017-May-17 23:29N 57°43' E 010°13'612.1
2017-May-17 23:00N 57°45' E 010°23'611.4
2017-May-17 22:29N 57°47' E 010°33'611.3
2017-May-17 22:00N 57°48' E 010°44'612.5
2017-May-17 21:30N 57°44' E 010°53'612.6
2017-May-17 21:00N 57°40' E 011°01'612.8
2017-May-17 20:30N 57°36' E 011°10'713.1
2017-May-17 20:00N 57°31' E 011°19'612.7
2017-May-17 19:31N 57°27' E 011°26'713.5
2017-May-17 19:00N 57°20' E 011°31'913.6
2017-May-17 18:21N 57°12' E 011°37'813.4
2017-May-17 17:47N 57°05' E 011°42'5712.9
2017-May-17 13:23N 56°14' E 012°27'514.0
2017-May-17 13:01N 56°09' E 012°31'713.4
2017-May-17 12:31N 56°04' E 012°39'612.8
2017-May-17 12:01N 55°58' E 012°42'611.3
2017-May-17 11:30N 55°52' E 012°44'510.2
2017-May-17 11:01N 55°47' E 012°43'5 9.7
2017-May-17 10:31N 55°42' E 012°41'5 9.3
2017-May-17 10:01N 55°38' E 012°42'4 8.9
2017-May-17 09:31N 55°33' E 012°42'5 9.6
2017-May-17 09:00N 55°28' E 012°42'612.0
2017-May-17 08:31N 55°23' E 012°41'510.0
2017-May-17 08:00N 55°18' E 012°44'1412.4
2017-May-17 06:52N 55°15' E 013°08'512.7
2017-May-17 06:30N 55°15' E 013°16'612.6
2017-May-17 05:59N 55°15' E 013°28'612.8
2017-May-17 05:30N 55°14' E 013°39'613.0
2017-May-17 05:00N 55°14' E 013°50'712.8
2017-May-17 04:29N 55°14' E 014°01'613.0
2017-May-17 04:00N 55°14' E 014°13'612.1
2017-May-17 03:29N 55°17' E 014°21'612.9
2017-May-17 03:00N 55°22' E 014°28'612.9
2017-May-17 02:30N 55°27' E 014°35'712.7
2017-May-17 01:58N 55°31' E 014°46'612.3
2017-May-17 01:31N 55°33' E 014°54'612.5
2017-May-17 01:00N 55°36' E 015°04'612.5
2017-May-17 00:31N 55°40' E 015°14'612.9
2017-May-17 00:01N 55°43' E 015°24'613.0
2017-May-16 23:31N 55°46' E 015°33'612.9
2017-May-16 23:01N 55°49' E 015°43'612.8
2017-May-16 22:31N 55°53' E 015°53'612.6
2017-May-16 22:00N 55°55' E 016°03'612.7
2017-May-16 21:30N 55°58' E 016°13'612.7
2017-May-16 21:01N 56°02' E 016°23'612.8
2017-May-16 20:31N 56°05' E 016°33'612.5
2017-May-16 20:01N 56°09' E 016°41'612.2
2017-May-16 19:30N 56°14' E 016°47'612.6
2017-May-16 19:01N 56°20' E 016°51'612.7
2017-May-16 18:30N 56°26' E 016°55'612.6
2017-May-16 18:01N 56°32' E 016°60'612.4
2017-May-16 17:30N 56°38' E 017°04'612.5
2017-May-16 17:00N 56°43' E 017°08'  

Dump ship's entire track history